LGRP/RHO METAR and TAF weather

Enter ICAO airport designator
Station Type Date Time Source
LGRP METAR 2022/11/30 09:50 UTC NOAA

LGRP 300950Z VRB03KT 9999 FEW018 20/12 Q1013 NOSIG


Station Type Date Time Source
LGRP Decoded METAR 2022/11/30 09:50 UTC NOAA

Rhodes Airport , Greece (LGRP) 36-24N 028-05E 11M
Nov 30, 2022 - 04:50 AM EST / 2022.11.30 0950 UTC
Wind: Variable at 3 MPH (3 KT):0
Visibility: greater than 7 mile(s):0
Sky conditions: mostly clear
Temperature: 68 F (20 C)
Dew Point: 53 F (12 C)
Relative Humidity: 59%
Pressure (altimeter): 29.91 in. Hg (1013 hPa)
ob: LGRP 300950Z VRB03KT 9999 FEW018 20/12 Q1013 NOSIG
cycle: 10

Station Type Date Time Source
LGRP TAF 2022/11/30 06:12 UTC NOAA

TAF LGRP 300500Z 3006/0106 15010KT 9999 FEW016 SCT020 PROB30
TEMPO 3006/3015 5000 RA SCT012 FEW016TCU BKN020 PROB30
TEMPO 3006/3015 3000 TSRA SCT008 FEW016CB BKN020
TEMPO 3021/0106 5000 RA SCT012 FEW016TCU BKN020
TEMPO 3021/0106 3000 TSRA SCT012 FEW016CB BKN020
TEMPO 0100/0106 16010G20KT

Example: see airport list